sensor_id;sensor_type;location;lat;lon;timestamp;pressure;altitude;pressure_sealevel;temperature;humidity
63665;BME280;49820;33.966;73.390;2022-09-28T00:00:21;78714.31;;;12.64;100.00
63665;BME280;49820;33.966;73.390;2022-09-28T00:02:50;78715.13;;;12.58;100.00
63665;BME280;49820;33.966;73.390;2022-09-28T00:05:20;78705.31;;;12.51;100.00
63665;BME280;49820;33.966;73.390;2022-09-28T00:07:49;78707.56;;;12.65;100.00
63665;BME280;49820;33.966;73.390;2022-09-28T00:10:19;78717.44;;;12.71;100.00
63665;BME280;49820;33.966;73.390;2022-09-28T00:12:51;78705.91;;;12.53;100.00
63665;BME280;49820;33.966;73.390;2022-09-28T00:15:23;78709.38;;;12.50;100.00
63665;BME280;49820;33.966;73.390;2022-09-28T00:17:52;78720.44;;;12.60;100.00
63665;BME280;49820;33.966;73.390;2022-09-28T00:20:21;78710.44;;;12.59;100.00
63665;BME280;49820;33.966;73.390;2022-09-28T00:22:49;78710.97;;;12.64;100.00
63665;BME280;49820;33.966;73.390;2022-09-28T00:25:18;78715.59;;;12.65;100.00
63665;BME280;49820;33.966;73.390;2022-09-28T00:27:49;78716.75;;;12.72;100.00
63665;BME280;49820;33.966;73.390;2022-09-28T00:30:18;78715.53;;;12.67;100.00
63665;BME280;49820;33.966;73.390;2022-09-28T00:32:47;78705.72;;;12.59;100.00
63665;BME280;49820;33.966;73.390;2022-09-28T00:35:16;78725.69;;;12.65;100.00
63665;BME280;49820;33.966;73.390;2022-09-28T00:37:47;78726.91;;;12.68;100.00
63665;BME280;49820;33.966;73.390;2022-09-28T00:40:16;78701.53;;;12.44;100.00
63665;BME280;49820;33.966;73.390;2022-09-28T00:42:45;78713.16;;;12.57;100.00
63665;BME280;49820;33.966;73.390;2022-09-28T00:45:14;78723.72;;;12.63;100.00
63665;BME280;49820;33.966;73.390;2022-09-28T00:50:23;78715.13;;;12.58;100.00
63665;BME280;49820;33.966;73.390;2022-09-28T00:58:09;78730.38;;;12.64;100.00
63665;BME280;49820;33.966;73.390;2022-09-28T01:00:39;78714.81;;;12.48;100.00
63665;BME280;49820;33.966;73.390;2022-09-28T01:03:09;78736.28;;;12.69;100.00
63665;BME280;49820;33.966;73.390;2022-09-28T01:05:38;78723.53;;;12.69;100.00
63665;BME280;49820;33.966;73.390;2022-09-28T01:08:09;78736.72;;;12.75;100.00
63665;BME280;49820;33.966;73.390;2022-09-28T01:10:39;78714.72;;;12.73;100.00
63665;BME280;49820;33.966;73.390;2022-09-28T01:13:12;78726.97;;;12.88;100.00
63665;BME280;49820;33.966;73.390;2022-09-28T01:21:36;78723.16;;;13.23;100.00
63665;BME280;49820;33.966;73.390;2022-09-28T01:24:45;78747.00;;;13.54;100.00
63665;BME280;49820;33.966;73.390;2022-09-28T01:27:40;78742.19;;;13.56;100.00
63665;BME280;49820;33.966;73.390;2022-09-28T01:30:16;78752.72;;;13.83;100.00
63665;BME280;49820;33.966;73.390;2022-09-28T01:35:28;78764.06;;;14.04;100.00
63665;BME280;49820;33.966;73.390;2022-09-28T01:38:08;78764.00;;;14.06;100.00
63665;BME280;49820;33.966;73.390;2022-09-28T01:40:41;78752.94;;;13.96;100.00
63665;BME280;49820;33.966;73.390;2022-09-28T01:43:17;78770.47;;;14.13;100.00
63665;BME280;49820;33.966;73.390;2022-09-28T01:45:54;78767.59;;;14.38;100.00
63665;BME280;49820;33.966;73.390;2022-09-28T01:48:40;78769.03;;;14.73;100.00
63665;BME280;49820;33.966;73.390;2022-09-28T01:54:04;78768.59;;;15.20;100.00
63665;BME280;49820;33.966;73.390;2022-09-28T01:56:45;78776.50;;;15.60;100.00
63665;BME280;49820;33.966;73.390;2022-09-28T01:59:17;78767.72;;;15.61;100.00
63665;BME280;49820;33.966;73.390;2022-09-28T02:01:55;78767.53;;;15.82;100.00
63665;BME280;49820;33.966;73.390;2022-09-28T02:04:32;78768.19;;;15.83;100.00
63665;BME280;49820;33.966;73.390;2022-09-28T02:07:12;78780.13;;;16.05;100.00
63665;BME280;49820;33.966;73.390;2022-09-28T02:09:59;78764.03;;;16.19;100.00
63665;BME280;49820;33.966;73.390;2022-09-28T02:12:32;78769.22;;;16.40;100.00
63665;BME280;49820;33.966;73.390;2022-09-28T02:15:22;78778.00;;;16.55;100.00
63665;BME280;49820;33.966;73.390;2022-09-28T02:17:55;78761.09;;;16.57;100.00
63665;BME280;49820;33.966;73.390;2022-09-28T02:20:25;78783.88;;;16.76;100.00
63665;BME280;49820;33.966;73.390;2022-09-28T02:22:55;78794.09;;;17.20;100.00
63665;BME280;49820;33.966;73.390;2022-09-28T02:25:29;78789.03;;;17.58;100.00
63665;BME280;49820;33.966;73.390;2022-09-28T02:28:09;78776.22;;;17.73;100.00
63665;BME280;49820;33.966;73.390;2022-09-28T02:30:40;78796.88;;;18.08;100.00
63665;BME280;49820;33.966;73.390;2022-09-28T02:33:37;78784.75;;;18.22;100.00
63665;BME280;49820;33.966;73.390;2022-09-28T02:36:08;78791.75;;;18.59;100.00
63665;BME280;49820;33.966;73.390;2022-09-28T02:38:38;78782.25;;;18.87;100.00
63665;BME280;49820;33.966;73.390;2022-09-28T02:46:58;78804.47;;;18.48;100.00
63665;BME280;49820;33.966;73.390;2022-09-28T02:49:45;78800.13;;;18.11;100.00
63665;BME280;49820;33.966;73.390;2022-09-28T03:00:20;78807.16;;;17.30;100.00
63665;BME280;49820;33.966;73.390;2022-09-28T03:08:57;78815.81;;;16.87;100.00
63665;BME280;49820;33.966;73.390;2022-09-28T03:11:38;78810.38;;;16.72;100.00
63665;BME280;49820;33.966;73.390;2022-09-28T03:14:11;78806.94;;;16.73;100.00
63665;BME280;49820;33.966;73.390;2022-09-28T03:16:50;78825.41;;;17.90;100.00
63665;BME280;49820;33.966;73.390;2022-09-28T03:19:23;78823.81;;;18.10;100.00
63665;BME280;49820;33.966;73.390;2022-09-28T03:21:52;78830.94;;;18.60;100.00
63665;BME280;49820;33.966;73.390;2022-09-28T03:24:23;78832.69;;;19.08;100.00
63665;BME280;49820;33.966;73.390;2022-09-28T03:26:52;78816.63;;;19.31;100.00
63665;BME280;49820;33.966;73.390;2022-09-28T03:29:21;78828.34;;;19.40;100.00
63665;BME280;49820;33.966;73.390;2022-09-28T03:31:57;78828.16;;;19.44;100.00
63665;BME280;49820;33.966;73.390;2022-09-28T03:34:26;78824.50;;;19.62;95.93
63665;BME280;49820;33.966;73.390;2022-09-28T03:36:55;78811.75;;;19.61;100.00
63665;BME280;49820;33.966;73.390;2022-09-28T03:39:26;78832.19;;;19.18;100.00
63665;BME280;49820;33.966;73.390;2022-09-28T03:41:54;78824.34;;;19.39;100.00
63665;BME280;49820;33.966;73.390;2022-09-28T03:44:23;78810.22;;;19.64;97.95
63665;BME280;49820;33.966;73.390;2022-09-28T03:46:52;78830.88;;;19.97;100.00
63665;BME280;49820;33.966;73.390;2022-09-28T03:49:22;78837.72;;;20.08;93.60
63665;BME280;49820;33.966;73.390;2022-09-28T03:51:51;78839.13;;;20.07;96.09
63665;BME280;49820;33.966;73.390;2022-09-28T03:54:19;78836.97;;;20.23;95.17
63665;BME280;49820;33.966;73.390;2022-09-28T03:56:48;78839.56;;;19.99;90.05
63665;BME280;49820;33.966;73.390;2022-09-28T03:59:18;78858.31;;;20.03;95.14
63665;BME280;49820;33.966;73.390;2022-09-28T04:01:50;78853.69;;;20.40;99.48
63665;BME280;49820;33.966;73.390;2022-09-28T04:04:20;78850.88;;;20.54;92.96
63665;BME280;49820;33.966;73.390;2022-09-28T04:06:49;78838.59;;;20.68;100.00
63665;BME280;49820;33.966;73.390;2022-09-28T04:09:18;78857.50;;;20.58;97.07
63665;BME280;49820;33.966;73.390;2022-09-28T04:11:47;78860.75;;;20.47;100.00
63665;BME280;49820;33.966;73.390;2022-09-28T04:14:32;78854.75;;;19.94;100.00
63665;BME280;49820;33.966;73.390;2022-09-28T04:17:02;78862.09;;;19.96;100.00
63665;BME280;49820;33.966;73.390;2022-09-28T04:19:32;78866.81;;;20.10;100.00
63665;BME280;49820;33.966;73.390;2022-09-28T04:22:21;78859.78;;;20.66;99.32
63665;BME280;49820;33.966;73.390;2022-09-28T04:24:50;78849.88;;;20.22;94.54
63665;BME280;49820;33.966;73.390;2022-09-28T04:27:19;78871.97;;;19.89;100.00
63665;BME280;49820;33.966;73.390;2022-09-28T04:30:07;78857.47;;;19.27;100.00
63665;BME280;49820;33.966;73.390;2022-09-28T04:32:38;78871.81;;;19.11;100.00
63665;BME280;49820;33.966;73.390;2022-09-28T04:35:10;78875.22;;;19.24;100.00
63665;BME280;49820;33.966;73.390;2022-09-28T04:37:40;78882.16;;;19.06;100.00
63665;BME280;49820;33.966;73.390;2022-09-28T04:40:09;78876.47;;;19.12;100.00
63665;BME280;49820;33.966;73.390;2022-09-28T04:42:37;78854.00;;;19.28;97.52
63665;BME280;49820;33.966;73.390;2022-09-28T04:45:06;78875.16;;;19.38;95.39
63665;BME280;49820;33.966;73.390;2022-09-28T04:47:41;78878.59;;;19.52;100.00
63665;BME280;49820;33.966;73.390;2022-09-28T04:50:42;78865.06;;;19.52;96.18
63665;BME280;49820;33.966;73.390;2022-09-28T04:53:17;78887.06;;;19.58;97.20
63665;BME280;49820;33.966;73.390;2022-09-28T04:56:00;78872.56;;;19.64;94.56
63665;BME280;49820;33.966;73.390;2022-09-28T04:58:30;78862.59;;;19.60;97.46
63665;BME280;49820;33.966;73.390;2022-09-28T05:01:02;78881.41;;;19.50;100.00
63665;BME280;49820;33.966;73.390;2022-09-28T05:03:52;78874.69;;;19.49;100.00
63665;BME280;49820;33.966;73.390;2022-09-28T05:06:39;78873.84;;;19.65;100.00
63665;BME280;49820;33.966;73.390;2022-09-28T05:09:08;78875.88;;;19.92;100.00
63665;BME280;49820;33.966;73.390;2022-09-28T05:11:38;78879.44;;;19.88;97.38
63665;BME280;49820;33.966;73.390;2022-09-28T05:14:12;78879.28;;;19.65;99.44
63665;BME280;49820;33.966;73.390;2022-09-28T05:16:42;78878.97;;;19.71;100.00
63665;BME280;49820;33.966;73.390;2022-09-28T05:19:34;78863.00;;;19.65;100.00
63665;BME280;49820;33.966;73.390;2022-09-28T05:22:03;78889.78;;;19.58;99.14
63665;BME280;49820;33.966;73.390;2022-09-28T05:24:38;78895.22;;;19.16;99.19
63665;BME280;49820;33.966;73.390;2022-09-28T05:27:08;78872.13;;;19.59;98.48
63665;BME280;49820;33.966;73.390;2022-09-28T05:29:37;78879.09;;;19.81;95.49
63665;BME280;49820;33.966;73.390;2022-09-28T05:32:42;78870.50;;;19.64;100.00
63665;BME280;49820;33.966;73.390;2022-09-28T05:35:27;78869.66;;;19.68;100.00
63665;BME280;49820;33.966;73.390;2022-09-28T05:38:02;78867.56;;;20.08;100.00
63665;BME280;49820;33.966;73.390;2022-09-28T05:40:32;78878.22;;;20.76;100.00
63665;BME280;49820;33.966;73.390;2022-09-28T05:43:01;78877.91;;;20.56;93.46
63665;BME280;49820;33.966;73.390;2022-09-28T05:45:32;78887.94;;;20.07;100.00
63665;BME280;49820;33.966;73.390;2022-09-28T05:48:03;78864.59;;;19.47;100.00
63665;BME280;49820;33.966;73.390;2022-09-28T05:50:32;78881.50;;;19.48;100.00
63665;BME280;49820;33.966;73.390;2022-09-28T05:53:05;78886.66;;;19.39;100.00
63665;BME280;49820;33.966;73.390;2022-09-28T05:55:36;78866.75;;;19.44;100.00
63665;BME280;49820;33.966;73.390;2022-09-28T05:58:06;78880.13;;;19.34;100.00
63665;BME280;49820;33.966;73.390;2022-09-28T06:00:36;78887.03;;;19.31;100.00
63665;BME280;49820;33.966;73.390;2022-09-28T06:03:09;78886.75;;;19.10;100.00
63665;BME280;49820;33.966;73.390;2022-09-28T06:05:39;78888.19;;;18.94;100.00
63665;BME280;49820;33.966;73.390;2022-09-28T06:08:09;78871.69;;;19.67;100.00
63665;BME280;49820;33.966;73.390;2022-09-28T06:10:42;78865.69;;;21.19;100.00
63665;BME280;49820;33.966;73.390;2022-09-28T06:13:12;78867.78;;;22.24;82.35
63665;BME280;49820;33.966;73.390;2022-09-28T06:15:41;78868.84;;;22.97;78.04
63665;BME280;49820;33.966;73.390;2022-09-28T06:18:13;78861.13;;;22.78;71.62
63665;BME280;49820;33.966;73.390;2022-09-28T06:21:03;78866.19;;;22.74;76.49
63665;BME280;49820;33.966;73.390;2022-09-28T06:23:36;78864.91;;;23.60;69.14
63665;BME280;49820;33.966;73.390;2022-09-28T06:26:07;78852.91;;;22.00;72.02
63665;BME280;49820;33.966;73.390;2022-09-28T06:28:36;78870.00;;;21.39;78.00
63665;BME280;49820;33.966;73.390;2022-09-28T06:31:05;78868.41;;;20.93;81.05
63665;BME280;49820;33.966;73.390;2022-09-28T06:33:42;78866.94;;;20.59;93.58
63665;BME280;49820;33.966;73.390;2022-09-28T06:36:11;78866.28;;;20.71;89.70
63665;BME280;49820;33.966;73.390;2022-09-28T06:38:40;78853.16;;;20.63;87.89
63665;BME280;49820;33.966;73.390;2022-09-28T06:41:10;78853.13;;;20.25;89.02
63665;BME280;49820;33.966;73.390;2022-09-28T06:43:40;78856.97;;;20.42;90.52
63665;BME280;49820;33.966;73.390;2022-09-28T06:46:12;78857.78;;;20.77;91.08
63665;BME280;49820;33.966;73.390;2022-09-28T06:48:50;78863.44;;;20.60;89.09
63665;BME280;49820;33.966;73.390;2022-09-28T06:51:39;78860.41;;;20.28;100.00
63665;BME280;49820;33.966;73.390;2022-09-28T06:54:19;78850.97;;;20.52;100.00
63665;BME280;49820;33.966;73.390;2022-09-28T06:57:10;78857.16;;;20.38;97.09
63665;BME280;49820;33.966;73.390;2022-09-28T06:59:40;78837.38;;;20.02;100.00
63665;BME280;49820;33.966;73.390;2022-09-28T07:02:10;78846.53;;;20.47;97.71
63665;BME280;49820;33.966;73.390;2022-09-28T07:04:48;78849.91;;;20.47;93.77
63665;BME280;49820;33.966;73.390;2022-09-28T07:07:57;78844.34;;;20.62;100.00
63665;BME280;49820;33.966;73.390;2022-09-28T07:10:46;78848.25;;;20.52;92.43
63665;BME280;49820;33.966;73.390;2022-09-28T07:13:27;78840.66;;;20.30;96.97
63665;BME280;49820;33.966;73.390;2022-09-28T07:16:17;78840.66;;;20.17;97.99
63665;BME280;49820;33.966;73.390;2022-09-28T07:18:54;78836.19;;;20.24;100.00
63665;BME280;49820;33.966;73.390;2022-09-28T07:21:23;78831.53;;;20.23;100.00
63665;BME280;49820;33.966;73.390;2022-09-28T07:24:02;78827.41;;;20.11;100.00
63665;BME280;49820;33.966;73.390;2022-09-28T07:26:55;78836.09;;;20.13;100.00
63665;BME280;49820;33.966;73.390;2022-09-28T07:29:53;78829.00;;;19.80;100.00
63665;BME280;49820;33.966;73.390;2022-09-28T07:32:33;78805.44;;;19.52;100.00
63665;BME280;49820;33.966;73.390;2022-09-28T07:35:19;78817.47;;;19.55;100.00
63665;BME280;49820;33.966;73.390;2022-09-28T07:37:58;78808.47;;;19.58;100.00
63665;BME280;49820;33.966;73.390;2022-09-28T07:40:31;78807.06;;;21.81;93.82
63665;BME280;49820;33.966;73.390;2022-09-28T07:43:20;78801.28;;;21.87;96.00
63665;BME280;49820;33.966;73.390;2022-09-28T07:45:52;78812.56;;;21.45;95.95
63665;BME280;49820;33.966;73.390;2022-09-28T07:48:22;78803.03;;;21.33;90.41
63665;BME280;49820;33.966;73.390;2022-09-28T07:51:18;78813.50;;;21.29;91.85
63665;BME280;49820;33.966;73.390;2022-09-28T07:54:08;78792.22;;;20.60;100.00
63665;BME280;49820;33.966;73.390;2022-09-28T07:56:44;78789.19;;;20.53;100.00
63665;BME280;49820;33.966;73.390;2022-09-28T07:59:26;78794.41;;;20.44;100.00
63665;BME280;49820;33.966;73.390;2022-09-28T08:02:13;78795.50;;;20.24;100.00
63665;BME280;49820;33.966;73.390;2022-09-28T08:04:42;78793.97;;;20.27;100.00
63665;BME280;49820;33.966;73.390;2022-09-28T08:07:13;78789.22;;;20.02;100.00
63665;BME280;49820;33.966;73.390;2022-09-28T08:09:53;78795.94;;;20.03;100.00
63665;BME280;49820;33.966;73.390;2022-09-28T08:12:25;78782.38;;;19.78;100.00
63665;BME280;49820;33.966;73.390;2022-09-28T08:15:27;78770.34;;;19.88;100.00
63665;BME280;49820;33.966;73.390;2022-09-28T08:18:10;78786.19;;;20.08;100.00
63665;BME280;49820;33.966;73.390;2022-09-28T08:20:39;78767.78;;;21.44;100.00
63665;BME280;49820;33.966;73.390;2022-09-28T08:23:27;78779.94;;;22.81;100.00
63665;BME280;49820;33.966;73.390;2022-09-28T08:25:56;78776.47;;;22.82;72.64
63665;BME280;49820;33.966;73.390;2022-09-28T08:28:25;78771.59;;;21.37;82.57
63665;BME280;49820;33.966;73.390;2022-09-28T08:30:59;78781.09;;;20.89;90.63
63665;BME280;49820;33.966;73.390;2022-09-28T08:33:29;78762.06;;;20.66;97.27
63665;BME280;49820;33.966;73.390;2022-09-28T08:36:32;78752.31;;;20.45;100.00
63665;BME280;49820;33.966;73.390;2022-09-28T08:39:01;78750.81;;;20.36;100.00
63665;BME280;49820;33.966;73.390;2022-09-28T08:45:07;78745.63;;;19.94;100.00
63665;BME280;49820;33.966;73.390;2022-09-28T08:48:12;78739.97;;;19.60;100.00
63665;BME280;49820;33.966;73.390;2022-09-28T08:51:36;78740.19;;;19.68;100.00
63665;BME280;49820;33.966;73.390;2022-09-28T08:57:28;78744.56;;;19.23;100.00
63665;BME280;49820;33.966;73.390;2022-09-28T08:59:59;78732.81;;;19.01;100.00
63665;BME280;49820;33.966;73.390;2022-09-28T09:02:37;78738.31;;;18.99;100.00
63665;BME280;49820;33.966;73.390;2022-09-28T09:05:19;78735.84;;;19.08;100.00
63665;BME280;49820;33.966;73.390;2022-09-28T09:11:01;78745.31;;;19.22;100.00
63665;BME280;49820;33.966;73.390;2022-09-28T09:19:37;78718.38;;;18.92;100.00
63665;BME280;49820;33.966;73.390;2022-09-28T09:22:57;78725.00;;;18.95;100.00
63665;BME280;49820;33.966;73.390;2022-09-28T09:31:13;78711.50;;;18.68;100.00
63665;BME280;49820;33.966;73.390;2022-09-28T09:34:11;78708.84;;;18.81;100.00
63665;BME280;49820;33.966;73.390;2022-09-28T09:37:10;78703.28;;;18.70;100.00
63665;BME280;49820;33.966;73.390;2022-09-28T09:40:16;78699.31;;;19.47;100.00
63665;BME280;49820;33.966;73.390;2022-09-28T09:46:22;78680.50;;;22.16;98.17
63665;BME280;49820;33.966;73.390;2022-09-28T09:49:20;78685.34;;;21.24;95.43
63665;BME280;49820;33.966;73.390;2022-09-28T09:57:33;78681.63;;;19.99;100.00
63665;BME280;49820;33.966;73.390;2022-09-28T10:00:16;78690.97;;;19.64;100.00
63665;BME280;49820;33.966;73.390;2022-09-28T10:03:01;78684.03;;;19.54;100.00
63665;BME280;49820;33.966;73.390;2022-09-28T10:05:38;78677.97;;;19.54;100.00
63665;BME280;49820;33.966;73.390;2022-09-28T10:08:15;78687.38;;;19.42;100.00
63665;BME280;49820;33.966;73.390;2022-09-28T10:11:04;78688.56;;;19.45;100.00
63665;BME280;49820;33.966;73.390;2022-09-28T10:13:39;78691.94;;;19.46;100.00
63665;BME280;49820;33.966;73.390;2022-09-28T10:16:30;78697.97;;;19.33;100.00
63665;BME280;49820;33.966;73.390;2022-09-28T10:19:04;78670.97;;;19.06;100.00
63665;BME280;49820;33.966;73.390;2022-09-28T10:21:52;78678.56;;;19.16;100.00
63665;BME280;49820;33.966;73.390;2022-09-28T10:24:33;78693.69;;;18.98;100.00
63665;BME280;49820;33.966;73.390;2022-09-28T10:27:16;78683.53;;;18.99;100.00
63665;BME280;49820;33.966;73.390;2022-09-28T10:29:53;78676.25;;;18.83;100.00
63665;BME280;49820;33.966;73.390;2022-09-28T10:32:25;78681.38;;;19.14;100.00
63665;BME280;49820;33.966;73.390;2022-09-28T10:35:12;78691.53;;;19.01;100.00
63665;BME280;49820;33.966;73.390;2022-09-28T10:40:51;78691.91;;;20.09;100.00
63665;BME280;49820;33.966;73.390;2022-09-28T10:43:37;78695.09;;;19.50;100.00
63665;BME280;49820;33.966;73.390;2022-09-28T10:46:20;78690.63;;;19.44;100.00
63665;BME280;49820;33.966;73.390;2022-09-28T10:49:17;78692.38;;;19.50;100.00
63665;BME280;49820;33.966;73.390;2022-09-28T10:51:54;78689.88;;;20.81;100.00
63665;BME280;49820;33.966;73.390;2022-09-28T10:54:33;78689.25;;;20.32;100.00
63665;BME280;49820;33.966;73.390;2022-09-28T10:57:02;78684.66;;;19.80;100.00
63665;BME280;49820;33.966;73.390;2022-09-28T10:59:45;78693.47;;;19.68;100.00
63665;BME280;49820;33.966;73.390;2022-09-28T11:02:36;78692.06;;;19.56;100.00
63665;BME280;49820;33.966;73.390;2022-09-28T11:05:21;78707.38;;;19.22;100.00
63665;BME280;49820;33.966;73.390;2022-09-28T11:07:55;78708.44;;;19.01;100.00
63665;BME280;49820;33.966;73.390;2022-09-28T11:10:32;78705.44;;;18.67;100.00
63665;BME280;49820;33.966;73.390;2022-09-28T11:13:21;78708.19;;;18.53;100.00
63665;BME280;49820;33.966;73.390;2022-09-28T11:16:00;78706.38;;;18.35;100.00
63665;BME280;49820;33.966;73.390;2022-09-28T11:18:33;78698.66;;;18.26;100.00
63665;BME280;49820;33.966;73.390;2022-09-28T11:21:28;78704.47;;;18.18;100.00
63665;BME280;49820;33.966;73.390;2022-09-28T11:24:05;78694.41;;;18.44;100.00
63665;BME280;49820;33.966;73.390;2022-09-28T11:26:46;78687.28;;;18.79;100.00
63665;BME280;49820;33.966;73.390;2022-09-28T11:29:25;78694.34;;;18.86;100.00
63665;BME280;49820;33.966;73.390;2022-09-28T11:32:19;78699.78;;;18.99;100.00
63665;BME280;49820;33.966;73.390;2022-09-28T11:35:17;78709.47;;;18.81;100.00
63665;BME280;49820;33.966;73.390;2022-09-28T11:41:24;78711.19;;;18.47;100.00
63665;BME280;49820;33.966;73.390;2022-09-28T11:44:37;78704.94;;;18.23;100.00
63665;BME280;49820;33.966;73.390;2022-09-28T11:56:04;78701.47;;;17.68;100.00
63665;BME280;49820;33.966;73.390;2022-09-28T11:59:03;78707.06;;;17.49;100.00
63665;BME280;49820;33.966;73.390;2022-09-28T12:04:35;78721.13;;;17.37;100.00
63665;BME280;49820;33.966;73.390;2022-09-28T12:09:52;78709.03;;;17.36;100.00
63665;BME280;49820;33.966;73.390;2022-09-28T12:15:44;78707.72;;;17.20;100.00
63665;BME280;49820;33.966;73.390;2022-09-28T12:21:50;78712.19;;;17.11;100.00
63665;BME280;49820;33.966;73.390;2022-09-28T12:24:25;78721.69;;;17.10;100.00
63665;BME280;49820;33.966;73.390;2022-09-28T12:27:30;78716.28;;;17.10;100.00
63665;BME280;49820;33.966;73.390;2022-09-28T12:30:20;78723.81;;;17.07;100.00
63665;BME280;49820;33.966;73.390;2022-09-28T12:33:20;78718.44;;;17.07;100.00
63665;BME280;49820;33.966;73.390;2022-09-28T12:42:35;78722.25;;;16.66;100.00
63665;BME280;49820;33.966;73.390;2022-09-28T12:48:41;78725.63;;;16.50;100.00
63665;BME280;49820;33.966;73.390;2022-09-28T12:51:55;78706.72;;;16.35;100.00
63665;BME280;49820;33.966;73.390;2022-09-28T12:54:53;78719.47;;;16.37;100.00
63665;BME280;49820;33.966;73.390;2022-09-28T13:00:37;78700.66;;;16.03;100.00
63665;BME280;49820;33.966;73.390;2022-09-28T13:03:45;78708.09;;;16.03;100.00
63665;BME280;49820;33.966;73.390;2022-09-28T13:09:26;78696.84;;;15.82;100.00
63665;BME280;49820;33.966;73.390;2022-09-28T13:12:13;78691.63;;;15.78;100.00
63665;BME280;49820;33.966;73.390;2022-09-28T13:15:15;78695.72;;;15.77;100.00
63665;BME280;49820;33.966;73.390;2022-09-28T13:18:02;78698.59;;;15.73;100.00
63665;BME280;49820;33.966;73.390;2022-09-28T13:20:40;78706.16;;;15.68;100.00
63665;BME280;49820;33.966;73.390;2022-09-28T13:26:36;78705.25;;;15.57;100.00
63665;BME280;49820;33.966;73.390;2022-09-28T13:28:45;78711.94;;;15.41;100.00
63665;BME280;49820;33.966;73.390;2022-09-28T13:31:21;78691.28;;;15.19;100.00
63665;BME280;49820;33.966;73.390;2022-09-28T13:34:02;78703.84;;;15.24;100.00
63665;BME280;49820;33.966;73.390;2022-09-28T13:39:00;78699.44;;;15.17;100.00
63665;BME280;49820;33.966;73.390;2022-09-28T13:41:32;78716.09;;;15.21;100.00
63665;BME280;49820;33.966;73.390;2022-09-28T13:47:06;78718.84;;;15.19;100.00
63665;BME280;49820;33.966;73.390;2022-09-28T13:49:50;78709.06;;;15.12;100.00
63665;BME280;49820;33.966;73.390;2022-09-28T13:53:00;78717.94;;;15.08;100.00
63665;BME280;49820;33.966;73.390;2022-09-28T13:55:55;78716.22;;;15.01;100.00
63665;BME280;49820;33.966;73.390;2022-09-28T13:58:31;78721.81;;;14.95;100.00
63665;BME280;49820;33.966;73.390;2022-09-28T14:01:08;78727.84;;;14.95;100.00
63665;BME280;49820;33.966;73.390;2022-09-28T14:04:14;78721.75;;;14.97;100.00
63665;BME280;49820;33.966;73.390;2022-09-28T14:06:50;78718.47;;;14.94;100.00
63665;BME280;49820;33.966;73.390;2022-09-28T14:09:25;78707.97;;;14.88;100.00
63665;BME280;49820;33.966;73.390;2022-09-28T14:12:00;78723.84;;;14.94;100.00
63665;BME280;49820;33.966;73.390;2022-09-28T14:14:44;78729.25;;;14.94;100.00
63665;BME280;49820;33.966;73.390;2022-09-28T14:20:01;78734.63;;;14.94;100.00
63665;BME280;49820;33.966;73.390;2022-09-28T14:22:48;78735.34;;;14.93;100.00
63665;BME280;49820;33.966;73.390;2022-09-28T14:25:23;78726.59;;;14.75;100.00
63665;BME280;49820;33.966;73.390;2022-09-28T14:30:51;78726.97;;;14.65;100.00
63665;BME280;49820;33.966;73.390;2022-09-28T14:33:26;78724.00;;;14.55;100.00
63665;BME280;49820;33.966;73.390;2022-09-28T14:36:03;78725.03;;;14.45;100.00
63665;BME280;49820;33.966;73.390;2022-09-28T14:38:52;78723.91;;;14.38;100.00
63665;BME280;49820;33.966;73.390;2022-09-28T14:41:41;78723.56;;;14.29;100.00
63665;BME280;49820;33.966;73.390;2022-09-28T14:44:13;78720.78;;;14.31;100.00
63665;BME280;49820;33.966;73.390;2022-09-28T14:46:47;78723.63;;;14.27;100.00
63665;BME280;49820;33.966;73.390;2022-09-28T14:57:20;78709.91;;;14.17;100.00
63665;BME280;49820;33.966;73.390;2022-09-28T14:59:50;78726.53;;;14.21;100.00
63665;BME280;49820;33.966;73.390;2022-09-28T15:02:23;78713.44;;;14.11;100.00
63665;BME280;49820;33.966;73.390;2022-09-28T15:05:08;78713.16;;;14.00;100.00
63665;BME280;49820;33.966;73.390;2022-09-28T15:07:47;78727.47;;;14.13;100.00
63665;BME280;49820;33.966;73.390;2022-09-28T15:12:54;78721.44;;;13.94;100.00
63665;BME280;49820;33.966;73.390;2022-09-28T15:15:25;78740.81;;;13.97;100.00
63665;BME280;49820;33.966;73.390;2022-09-28T15:18:15;78748.44;;;13.90;100.00
63665;BME280;49820;33.966;73.390;2022-09-28T15:20:53;78729.16;;;13.65;100.00
63665;BME280;49820;33.966;73.390;2022-09-28T15:23:39;78759.38;;;13.84;100.00
63665;BME280;49820;33.966;73.390;2022-09-28T15:26:30;78745.25;;;13.65;100.00
63665;BME280;49820;33.966;73.390;2022-09-28T15:29:00;78762.19;;;13.61;100.00
63665;BME280;49820;33.966;73.390;2022-09-28T15:34:41;78757.78;;;13.31;100.00
63665;BME280;49820;33.966;73.390;2022-09-28T15:37:32;78759.25;;;13.28;100.00
63665;BME280;49820;33.966;73.390;2022-09-28T15:40:12;78766.09;;;13.23;100.00
63665;BME280;49820;33.966;73.390;2022-09-28T15:42:43;78763.84;;;13.09;100.00
63665;BME280;49820;33.966;73.390;2022-09-28T15:47:42;78761.38;;;13.23;100.00
63665;BME280;49820;33.966;73.390;2022-09-28T15:50:28;78784.22;;;13.64;100.00
63665;BME280;49820;33.966;73.390;2022-09-28T15:53:01;78782.63;;;13.71;100.00
63665;BME280;49820;33.966;73.390;2022-09-28T15:55:33;78774.13;;;13.85;100.00
63665;BME280;49820;33.966;73.390;2022-09-28T15:58:18;78768.66;;;13.87;100.00
63665;BME280;49820;33.966;73.390;2022-09-28T16:00:49;78773.09;;;13.95;100.00
63665;BME280;49820;33.966;73.390;2022-09-28T16:03:28;78776.91;;;14.02;100.00